Toland, Pennsylvania
Current Conditions -  °F | °C
As of 3:56 AM on Wednesday 22 Oct 2014 (Local Time) from KTHV Reporting Station
Moderate Rain Moderate Rain  
Wind Chill: 51°   Ceiling: 2100
Heat Index: 51°   Visibility: 3mi
Dew Point: 50°   Wind: 0mph
Humidity: 96%   Direction: NA
Pressure: 29.9"   Gusts: NA
Location:  40.0362°N, 77.1908°W
Report Text: KTHV 220756Z AUTO 00000KT 3SM RA BR BKN021 OVC026 11/10 A2990 RMK AO2 P0001 T01060100
Loading
Personal Weather Stations






























Interactive Weather Map
Tropical Storm Tracking
New forecast layout! Learn more

10-Day Weather Forecast

Advertisements
Track Severe Weather on mobile